createdAt,value
2022-09-16T00:00:47.277Z,99329.31
2022-09-16T00:03:35.404Z,99333.22
2022-09-16T00:06:26.477Z,99332.44
2022-09-16T00:09:14.416Z,99334.84
2022-09-16T00:12:02.545Z,99330.88
2022-09-16T00:14:50.470Z,99327.72
2022-09-16T00:17:38.849Z,99326.56
2022-09-16T00:20:26.771Z,99328.94
2022-09-16T00:23:15.984Z,99327.81
2022-09-16T00:26:05.184Z,99325.81
2022-09-16T00:28:53.098Z,99328.22
2022-09-16T00:31:41.139Z,99335.63
2022-09-16T00:34:29.048Z,99336.75
2022-09-16T00:37:16.929Z,99326.91
2022-09-16T00:40:07.469Z,99322.56
2022-09-16T00:42:55.444Z,99327.38
2022-09-16T00:45:46.214Z,99323.88
2022-09-16T00:48:35.402Z,99325.94
2022-09-16T00:51:25.308Z,99322.34
2022-09-16T00:54:13.282Z,99331.41
2022-09-16T00:57:04.770Z,99312.22
2022-09-16T00:59:55.535Z,99327.13
2022-09-16T01:02:45.631Z,99325.63
2022-09-16T01:05:34.850Z,99317.72
2022-09-16T01:08:22.807Z,99317.78
2022-09-16T01:11:10.710Z,99316.22
2022-09-16T01:14:21.646Z,99309.88
2022-09-16T01:17:14.787Z,99320.97
2022-09-16T01:20:38.244Z,99317.84
2022-09-16T01:23:54.671Z,99310.72
2022-09-16T01:27:21.538Z,99311.56
2022-09-16T01:30:22.298Z,99314.72
2022-09-16T01:33:19.886Z,99317.91
2022-09-16T01:36:23.419Z,99323.78
2022-09-16T01:39:23.264Z,99320.22
2022-09-16T01:42:22.696Z,99322.50
2022-09-16T01:45:18.517Z,99328.47
2022-09-16T01:48:17.225Z,99324.50
2022-09-16T01:51:13.341Z,99343.44
2022-09-16T01:54:07.908Z,99330.41
2022-09-16T01:57:03.004Z,99295.13
2022-09-16T01:59:55.271Z,99335.44
2022-09-16T02:02:48.120Z,99331.97
2022-09-16T02:05:46.028Z,99327.25
2022-09-16T02:08:39.078Z,99315.41
2022-09-16T02:11:27.260Z,99303.25
2022-09-16T02:14:19.130Z,99287.13
2022-09-16T02:17:10.039Z,99272.09
2022-09-16T02:20:03.709Z,99272.03
2022-09-16T02:22:58.828Z,99293.38
2022-09-16T02:25:50.445Z,99303.53
2022-09-16T02:28:43.442Z,99301.59
2022-09-16T02:31:36.180Z,99303.25
2022-09-16T02:34:29.646Z,99304.06
2022-09-16T02:37:20.817Z,99323.31
2022-09-16T02:40:15.669Z,99321.38
2022-09-16T02:43:04.439Z,99306.41
2022-09-16T02:45:59.941Z,99303.53
2022-09-16T02:48:57.175Z,99307.13
2022-09-16T02:51:55.759Z,99316.19
2022-09-16T02:54:51.580Z,99332.81
2022-09-16T02:57:41.659Z,99327.66
2022-09-16T03:00:33.614Z,99310.06
2022-09-16T03:03:22.105Z,99344.31
2022-09-16T03:06:19.741Z,99342.31
2022-09-16T03:09:10.791Z,99352.13
2022-09-16T03:12:17.871Z,99346.63
2022-09-16T03:15:29.140Z,99341.53
2022-09-16T03:18:28.774Z,99330.16
2022-09-16T03:21:22.221Z,99330.50
2022-09-16T03:24:16.033Z,99325.72
2022-09-16T03:27:10.114Z,99328.88
2022-09-16T03:30:04.142Z,99312.75
2022-09-16T03:32:57.649Z,99314.72
2022-09-16T03:35:49.197Z,99312.81
2022-09-16T03:38:39.489Z,99304.00
2022-09-16T03:41:29.528Z,99295.03
2022-09-16T03:44:17.437Z,99306.44
2022-09-16T03:47:05.797Z,99300.03
2022-09-16T03:49:55.036Z,99303.59
2022-09-16T03:52:42.978Z,99300.47
2022-09-16T03:55:30.864Z,99298.91
2022-09-16T03:58:18.775Z,99298.19
2022-09-16T04:01:06.696Z,99291.88
2022-09-16T04:03:54.602Z,99287.97
2022-09-16T04:06:43.873Z,99292.72
2022-09-16T04:09:31.729Z,99294.28
2022-09-16T04:12:19.745Z,99286.44
2022-09-16T04:15:08.442Z,99263.75
2022-09-16T04:17:56.665Z,99293.25
2022-09-16T04:20:45.107Z,99297.09
2022-09-16T04:23:34.345Z,99285.75
2022-09-16T04:26:22.489Z,99295.25
2022-09-16T04:29:10.628Z,99283.34
2022-09-16T04:31:58.541Z,99291.63
2022-09-16T04:34:46.737Z,99290.06
2022-09-16T04:37:34.648Z,99282.97
2022-09-16T04:40:23.934Z,99279.44
2022-09-16T04:43:11.831Z,99284.59
2022-09-16T04:45:59.862Z,99281.81
2022-09-16T04:48:48.354Z,99282.66
2022-09-16T04:51:36.269Z,99277.84
2022-09-16T04:54:24.180Z,99280.69
2022-09-16T04:57:13.462Z,99278.81
2022-09-16T05:00:01.625Z,99281.59
2022-09-16T05:02:49.780Z,99281.94
2022-09-16T05:05:37.641Z,99290.22
2022-09-16T05:08:25.534Z,99292.59
2022-09-16T05:11:15.833Z,99283.06
2022-09-16T05:14:07.209Z,99284.66
2022-09-16T05:16:55.099Z,99290.22
2022-09-16T05:19:42.989Z,99281.97
2022-09-16T05:22:30.973Z,99289.88
2022-09-16T05:25:19.130Z,99286.03
2022-09-16T05:28:07.075Z,99298.63
2022-09-16T05:30:56.658Z,99286.44
2022-09-16T05:33:47.422Z,99299.41
2022-09-16T05:36:37.430Z,99296.63
2022-09-16T05:39:26.400Z,99307.19
2022-09-16T05:42:14.392Z,99290.69
2022-09-16T05:45:02.399Z,99294.63
2022-09-16T05:47:52.373Z,99266.44
2022-09-16T05:50:40.201Z,99296.13
2022-09-16T05:53:30.009Z,99289.34
2022-09-16T05:56:20.134Z,99295.22
2022-09-16T05:59:08.015Z,99291.59
2022-09-16T06:01:56.703Z,99299.03
2022-09-16T06:04:46.087Z,99298.88
2022-09-16T06:07:33.986Z,99296.50
2022-09-16T06:10:21.865Z,99303.41
2022-09-16T06:13:09.799Z,99306.34
2022-09-16T06:15:58.406Z,99307.84
2022-09-16T06:18:46.320Z,99305.91
2022-09-16T06:21:35.578Z,99313.25
2022-09-16T06:24:23.561Z,99302.53
2022-09-16T06:27:11.479Z,99315.38
2022-09-16T06:29:59.385Z,99313.34
2022-09-16T06:32:47.263Z,99304.09
2022-09-16T06:35:36.407Z,99287.56
2022-09-16T06:38:25.785Z,99309.75
2022-09-16T06:41:14.936Z,99302.75
2022-09-16T06:44:03.530Z,99296.56
2022-09-16T06:46:51.440Z,99300.69
2022-09-16T06:49:39.306Z,99300.38
2022-09-16T06:52:28.012Z,99305.84
2022-09-16T06:55:17.447Z,99294.97
2022-09-16T06:58:05.319Z,99287.75
2022-09-16T07:00:53.276Z,99298.81
2022-09-16T07:03:43.985Z,99282.97
2022-09-16T07:07:04.847Z,99298.75
2022-09-16T07:09:41.110Z,99278.75
2022-09-16T07:12:30.471Z,99302.34
2022-09-16T07:15:18.704Z,99241.56
2022-09-16T07:18:06.681Z,99306.13
2022-09-16T07:21:01.072Z,99303.72
2022-09-16T07:23:49.322Z,99306.41
2022-09-16T07:26:37.871Z,99314.34
2022-09-16T07:29:27.851Z,99314.72
2022-09-16T07:32:15.768Z,99318.38
2022-09-16T07:35:04.752Z,99313.59
2022-09-16T07:37:53.159Z,99326.03
2022-09-16T07:40:41.727Z,99323.84
2022-09-16T07:43:30.194Z,99318.50
2022-09-16T07:46:20.469Z,99331.94
2022-09-16T07:49:10.277Z,99326.75
2022-09-16T07:51:58.185Z,99318.59
2022-09-16T07:54:47.005Z,99324.25
2022-09-16T07:57:34.910Z,99327.13
2022-09-16T08:00:23.109Z,99328.34
2022-09-16T08:03:12.388Z,99323.75
2022-09-16T08:06:01.833Z,99331.22
2022-09-16T08:08:52.218Z,99337.91
2022-09-16T08:11:40.106Z,99323.84
2022-09-16T08:14:27.995Z,99333.41
2022-09-16T08:17:16.112Z,99333.31
2022-09-16T08:20:07.145Z,99330.00
2022-09-16T08:22:57.912Z,99328.19
2022-09-16T08:25:47.046Z,99332.84
2022-09-16T08:28:45.316Z,99220.31
2022-09-16T08:31:39.477Z,99328.50
2022-09-16T08:34:27.581Z,99338.41
2022-09-16T08:37:16.815Z,99332.22
2022-09-16T08:40:06.308Z,99332.41
2022-09-16T08:43:04.999Z,99342.16
2022-09-16T08:45:57.967Z,99344.66
2022-09-16T08:48:54.338Z,99340.69
2022-09-16T08:51:42.558Z,99344.84
2022-09-16T08:54:38.373Z,99341.78
2022-09-16T08:57:32.668Z,99344.22
2022-09-16T09:00:20.882Z,99340.63
2022-09-16T09:03:18.333Z,99343.78
2022-09-16T09:06:19.951Z,99346.78
2022-09-16T09:09:20.337Z,99332.09
2022-09-16T09:12:16.859Z,99341.03
2022-09-16T09:15:14.933Z,99342.50
2022-09-16T09:18:21.445Z,99347.53
2022-09-16T09:21:21.537Z,99347.44
2022-09-16T09:24:24.359Z,99350.41
2022-09-16T09:27:16.797Z,99332.81
2022-09-16T09:30:14.139Z,99346.72
2022-09-16T09:33:41.500Z,99346.22
2022-09-16T09:36:37.517Z,99342.63
2022-09-16T09:39:40.040Z,99335.84
2022-09-16T09:42:32.633Z,99335.41
2022-09-16T09:45:27.598Z,99337.28
2022-09-16T09:48:20.676Z,99327.06
2022-09-16T09:51:17.373Z,99332.81
2022-09-16T09:54:17.412Z,99322.69
2022-09-16T09:57:11.861Z,99330.16
2022-09-16T10:00:07.144Z,99335.81
2022-09-16T10:03:05.691Z,99337.94
2022-09-16T10:05:53.615Z,99331.06
2022-09-16T10:08:46.051Z,99333.50
2022-09-16T10:11:34.140Z,99334.06
2022-09-16T10:14:30.533Z,99335.25
2022-09-16T10:17:20.571Z,99334.09
2022-09-16T10:20:35.623Z,99338.53
2022-09-16T10:23:29.602Z,99333.84
2022-09-16T10:26:22.243Z,99325.38
2022-09-16T10:29:17.068Z,99317.25
2022-09-16T10:32:09.073Z,99308.19
2022-09-16T10:34:58.485Z,99319.19
2022-09-16T10:37:51.507Z,99307.22
2022-09-16T10:40:41.002Z,99316.34
2022-09-16T10:43:31.447Z,99310.44
2022-09-16T10:46:20.497Z,99291.13
2022-09-16T10:49:12.466Z,99304.47
2022-09-16T10:52:10.784Z,99305.25
2022-09-16T10:54:58.844Z,99292.53
2022-09-16T10:57:47.688Z,99303.25
2022-09-16T11:00:45.882Z,99309.84
2022-09-16T11:03:54.634Z,99306.84
2022-09-16T11:07:01.764Z,99299.88
2022-09-16T11:09:58.341Z,99299.00
2022-09-16T11:13:12.955Z,99295.94
2022-09-16T11:16:24.364Z,99298.19
2022-09-16T11:19:19.986Z,99295.22
2022-09-16T11:22:21.259Z,99294.66
2022-09-16T11:25:39.161Z,99297.72
2022-09-16T11:28:46.968Z,99297.59
2022-09-16T11:31:44.350Z,99289.06
2022-09-16T11:34:44.733Z,99282.28
2022-09-16T11:37:39.604Z,99286.19
2022-09-16T11:40:35.477Z,99288.38
2022-09-16T11:44:02.439Z,99281.25
2022-09-16T11:47:02.365Z,99286.84
2022-09-16T11:50:07.996Z,99281.06
2022-09-16T11:53:27.960Z,99291.50
2022-09-16T11:56:25.495Z,99294.13
2022-09-16T11:59:21.725Z,99302.59
2022-09-16T12:02:24.368Z,99300.50
2022-09-16T12:05:19.627Z,99297.81
2022-09-16T12:08:22.613Z,99307.56
2022-09-16T12:11:19.393Z,99299.94
2022-09-16T12:14:15.915Z,99295.16
2022-09-16T12:17:10.013Z,99300.16
2022-09-16T12:20:00.981Z,99303.84
2022-09-16T12:22:54.314Z,99302.66
2022-09-16T12:25:46.910Z,99294.75
2022-09-16T12:28:38.768Z,99296.16
2022-09-16T12:31:31.644Z,99297.09
2022-09-16T12:34:24.884Z,99294.25
2022-09-16T12:37:28.885Z,99294.53
2022-09-16T12:40:24.189Z,99290.00
2022-09-16T12:43:28.036Z,99291.22
2022-09-16T12:46:44.847Z,99284.47
2022-09-16T12:50:02.582Z,99290.91
2022-09-16T12:53:35.738Z,99282.72
2022-09-16T12:56:39.361Z,99284.25
2022-09-16T13:00:04.358Z,99284.50
2022-09-16T13:02:54.864Z,99234.66
2022-09-16T13:05:47.253Z,99285.16
2022-09-16T13:08:35.871Z,99280.09
2022-09-16T13:12:16.569Z,99279.19
2022-09-16T13:14:39.603Z,99271.97
2022-09-16T13:17:30.194Z,99268.75
2022-09-16T13:20:21.084Z,99271.56
2022-09-16T13:23:16.989Z,99259.53
2022-09-16T13:26:07.392Z,99259.88
2022-09-16T13:28:57.767Z,99258.31
2022-09-16T13:31:48.713Z,99259.25
2022-09-16T13:34:36.783Z,99258.31
2022-09-16T13:37:27.127Z,99256.41
2022-09-16T13:40:22.321Z,99264.00
2022-09-16T13:43:14.631Z,99270.06
2022-09-16T13:46:08.695Z,99296.13
2022-09-16T13:49:05.039Z,99277.44
2022-09-16T13:51:53.932Z,99308.75
2022-09-16T13:55:09.023Z,99315.72
2022-09-16T13:58:07.442Z,99319.00
2022-09-16T14:01:05.692Z,99323.59
2022-09-16T14:04:02.229Z,99326.31
2022-09-16T14:07:08.022Z,99311.75
2022-09-16T14:10:01.481Z,99307.09
2022-09-16T14:13:01.057Z,99301.94
2022-09-16T14:15:52.420Z,99309.88
2022-09-16T14:18:46.093Z,99306.94
2022-09-16T14:21:34.588Z,99270.75
2022-09-16T14:24:22.554Z,99293.47
2022-09-16T14:27:20.427Z,99299.00
2022-09-16T14:30:16.807Z,99304.06
2022-09-16T14:33:07.949Z,99301.72
2022-09-16T14:35:57.011Z,99295.03
2022-09-16T14:38:49.858Z,99294.72
2022-09-16T14:41:40.557Z,99275.97
2022-09-16T14:44:36.611Z,99292.38
2022-09-16T14:47:47.388Z,99288.66
2022-09-16T14:50:40.969Z,99273.69
2022-09-16T14:53:36.411Z,99294.13
2022-09-16T14:56:26.000Z,99286.22
2022-09-16T14:59:15.708Z,99286.44
2022-09-16T15:02:07.849Z,99290.84
2022-09-16T15:04:58.568Z,99292.41
2022-09-16T15:08:09.910Z,99283.53
2022-09-16T15:11:00.150Z,99290.06
2022-09-16T15:13:48.497Z,99288.38
2022-09-16T15:16:43.262Z,99293.63
2022-09-16T15:19:35.026Z,99301.34
2022-09-16T15:22:24.071Z,99291.97
2022-09-16T15:25:21.531Z,99297.44
2022-09-16T15:28:17.972Z,99298.72
2022-09-16T15:31:07.655Z,99297.81
2022-09-16T15:33:56.717Z,99292.44
2022-09-16T15:36:45.362Z,99300.38
2022-09-16T15:39:35.480Z,99296.53
2022-09-16T15:42:24.845Z,99297.75
2022-09-16T15:45:17.748Z,99307.34
2022-09-16T15:48:12.138Z,99315.69
2022-09-16T15:51:05.973Z,99295.84
2022-09-16T15:53:57.622Z,99320.34
2022-09-16T15:56:54.360Z,99335.34
2022-09-16T15:59:48.249Z,99329.84
2022-09-16T16:02:41.758Z,99332.25
2022-09-16T16:05:32.925Z,99305.00
2022-09-16T16:08:40.036Z,99336.94
2022-09-16T16:11:28.168Z,99338.25
2022-09-16T16:14:16.108Z,99338.81
2022-09-16T16:17:15.128Z,99330.66
2022-09-16T16:20:03.629Z,99307.13
2022-09-16T16:22:53.218Z,99327.78
2022-09-16T16:25:41.441Z,99334.84
2022-09-16T16:28:29.788Z,99335.31
2022-09-16T16:31:19.213Z,99298.56
2022-09-16T16:34:08.495Z,99346.03
2022-09-16T16:36:56.406Z,99333.91
2022-09-16T16:39:45.318Z,99346.50
2022-09-16T16:42:33.513Z,99346.88
2022-09-16T16:45:22.008Z,99357.94
2022-09-16T16:48:10.981Z,99361.91
2022-09-16T16:51:03.499Z,99365.50
2022-09-16T16:53:52.972Z,99307.84
2022-09-16T16:56:41.717Z,99374.59
2022-09-16T16:59:29.590Z,99365.97
2022-09-16T17:02:17.551Z,99362.88
2022-09-16T17:05:06.090Z,99351.06
2022-09-16T17:07:55.311Z,99354.94
2022-09-16T17:10:44.624Z,99357.38
2022-09-16T17:13:32.484Z,99356.16
2022-09-16T17:16:22.652Z,99353.06
2022-09-16T17:19:11.234Z,99358.66
2022-09-16T17:21:59.109Z,99349.25
2022-09-16T17:24:48.405Z,99355.56
2022-09-16T17:27:36.257Z,99359.13
2022-09-16T17:30:24.162Z,99360.31
2022-09-16T17:33:12.077Z,99364.28
2022-09-16T17:36:04.960Z,99375.28
2022-09-16T17:38:57.365Z,99376.84
2022-09-16T17:41:48.635Z,99368.97
2022-09-16T17:44:36.563Z,99372.91
2022-09-16T17:47:24.834Z,99368.53
2022-09-16T17:50:12.808Z,99382.25
2022-09-16T17:53:00.667Z,99379.88
2022-09-16T17:55:48.664Z,99378.69
2022-09-16T17:58:39.814Z,99381.00
2022-09-16T18:01:28.330Z,99390.78
2022-09-16T18:04:16.193Z,99386.84
2022-09-16T18:07:04.102Z,99393.50
2022-09-16T18:09:52.031Z,99388.41
2022-09-16T18:12:39.995Z,99394.63
2022-09-16T18:15:29.516Z,99396.16
2022-09-16T18:18:18.217Z,99392.59
2022-09-16T18:21:08.083Z,99403.19
2022-09-16T18:23:57.708Z,99399.28
2022-09-16T18:26:45.990Z,99397.69
2022-09-16T18:29:33.843Z,99395.69
2022-09-16T18:32:23.047Z,99403.91
2022-09-16T18:35:12.445Z,99398.00
2022-09-16T18:38:00.321Z,99409.00
2022-09-16T18:40:48.277Z,99408.63
2022-09-16T18:43:37.075Z,99411.41
2022-09-16T18:46:27.110Z,99326.84
2022-09-16T18:49:18.068Z,99411.06
2022-09-16T18:52:05.935Z,99408.72
2022-09-16T18:54:53.860Z,99407.53
2022-09-16T18:57:41.835Z,99406.72
2022-09-16T19:00:29.755Z,99404.31
2022-09-16T19:03:17.651Z,99417.31
2022-09-16T19:06:07.396Z,99425.25
2022-09-16T19:08:55.512Z,99424.06
2022-09-16T19:11:44.098Z,99416.56
2022-09-16T19:14:31.961Z,99417.31
2022-09-16T19:17:19.977Z,99422.00
2022-09-16T19:20:08.332Z,99420.44
2022-09-16T19:22:57.583Z,99426.28
2022-09-16T19:25:45.433Z,99429.88
2022-09-16T19:28:33.345Z,99429.06
2022-09-16T19:31:21.786Z,99430.28
2022-09-16T19:34:10.272Z,99435.78
2022-09-16T19:36:58.173Z,99432.22
2022-09-16T19:39:47.849Z,99436.16
2022-09-16T19:42:35.732Z,99436.16
2022-09-16T19:45:27.779Z,99435.34
2022-09-16T19:48:15.964Z,99440.81
2022-09-16T19:51:03.964Z,99441.19
2022-09-16T19:53:53.222Z,99443.50
2022-09-16T19:56:45.905Z,99447.00
2022-09-16T19:59:36.233Z,99444.19
2022-09-16T20:02:24.411Z,99441.81
2022-09-16T20:05:13.047Z,99444.53
2022-09-16T20:08:00.962Z,99438.19
2022-09-16T20:10:48.895Z,99439.31
2022-09-16T20:13:38.955Z,99434.19
2022-09-16T20:16:30.485Z,99445.94
2022-09-16T20:19:20.220Z,99444.72
2022-09-16T20:22:08.244Z,99447.53
2022-09-16T20:25:12.432Z,99449.06
2022-09-16T20:28:04.174Z,99451.72
2022-09-16T20:30:53.442Z,99453.31
2022-09-16T20:33:41.787Z,99462.28
2022-09-16T20:36:31.340Z,99457.97
2022-09-16T20:39:19.435Z,99457.91
2022-09-16T20:42:07.610Z,99460.31
2022-09-16T20:44:55.469Z,99465.00
2022-09-16T20:47:44.682Z,99468.56
2022-09-16T20:50:32.573Z,99461.41
2022-09-16T20:53:20.425Z,99464.84
2022-09-16T20:56:11.079Z,99471.44
2022-09-16T20:58:59.576Z,99471.41
2022-09-16T21:01:48.305Z,99468.72
2022-09-16T21:04:37.605Z,99478.47
2022-09-16T21:07:25.509Z,99472.59
2022-09-16T21:10:13.435Z,99474.09
2022-09-16T21:13:01.296Z,99483.44
2022-09-16T21:15:56.034Z,99478.97
2022-09-16T21:18:44.437Z,99475.38
2022-09-16T21:21:33.665Z,99490.34
2022-09-16T21:24:21.735Z,99486.75
2022-09-16T21:27:10.154Z,99493.00
2022-09-16T21:29:58.327Z,99494.63
2022-09-16T21:32:46.214Z,99486.81
2022-09-16T21:35:34.061Z,99491.53
2022-09-16T21:38:24.532Z,99494.63
2022-09-16T21:41:15.077Z,99510.28
2022-09-16T21:44:03.804Z,99499.28
2022-09-16T21:46:51.712Z,99496.19
2022-09-16T21:49:40.368Z,99503.97
2022-09-16T21:52:28.467Z,99519.97
2022-09-16T21:55:17.708Z,99514.41
2022-09-16T21:58:05.582Z,99510.94
2022-09-16T22:00:53.527Z,99510.47
2022-09-16T22:03:43.102Z,99510.78
2022-09-16T22:06:31.466Z,99488.63
2022-09-16T22:09:19.688Z,99513.91
2022-09-16T22:12:08.968Z,99517.78
2022-09-16T22:14:56.815Z,99516.59
2022-09-16T22:17:46.958Z,99523.25
2022-09-16T22:20:38.210Z,99523.25
2022-09-16T22:23:26.273Z,99524.84
2022-09-16T22:26:16.020Z,99527.53
2022-09-16T22:29:06.266Z,99517.22
2022-09-16T22:31:54.213Z,99518.41
2022-09-16T22:34:42.165Z,99513.38
2022-09-16T22:37:30.044Z,99512.13
2022-09-16T22:40:18.370Z,99508.59
2022-09-16T22:43:06.306Z,99505.78
2022-09-16T22:45:55.683Z,99502.66
2022-09-16T22:48:44.047Z,99502.63
2022-09-16T22:51:32.477Z,99499.44
2022-09-16T22:54:20.393Z,99496.56
2022-09-16T22:57:08.300Z,99500.56
2022-09-16T22:59:56.171Z,99504.78
2022-09-16T23:02:45.369Z,99507.97
2022-09-16T23:05:33.225Z,99508.78
2022-09-16T23:08:21.164Z,99507.66
2022-09-16T23:11:11.586Z,99509.28
2022-09-16T23:14:00.145Z,99513.56
2022-09-16T23:16:48.911Z,99511.19
2022-09-16T23:19:38.146Z,99514.63
2022-09-16T23:22:26.051Z,99511.47
2022-09-16T23:25:13.973Z,99510.25
2022-09-16T23:28:02.092Z,99511.09
2022-09-16T23:30:50.518Z,99486.97
2022-09-16T23:33:38.548Z,99511.78
2022-09-16T23:36:29.311Z,99507.41
2022-09-16T23:39:17.832Z,99515.16
2022-09-16T23:42:05.979Z,99510.88
2022-09-16T23:44:53.868Z,99508.84
2022-09-16T23:47:41.717Z,99517.06
2022-09-16T23:50:29.587Z,99522.69
2022-09-16T23:53:18.772Z,99512.72
2022-09-16T23:56:07.586Z,99520.81
2022-09-16T23:59:00.145Z,99518.16
